sensor_id;sensor_type;location;lat;lon;timestamp;temperature;humidity
17452;DHT22;8843;48.838;9.324;2023-04-24T00:01:23;14.80;82.20
17452;DHT22;8843;48.838;9.324;2023-04-24T00:03:50;14.80;81.00
17452;DHT22;8843;48.838;9.324;2023-04-24T00:06:17;14.80;81.10
17452;DHT22;8843;48.838;9.324;2023-04-24T00:08:44;14.90;81.30
17452;DHT22;8843;48.838;9.324;2023-04-24T00:11:11;14.90;81.00
17452;DHT22;8843;48.838;9.324;2023-04-24T00:13:38;14.80;80.10
17452;DHT22;8843;48.838;9.324;2023-04-24T00:16:05;14.90;81.30
17452;DHT22;8843;48.838;9.324;2023-04-24T00:18:33;14.90;80.80
17452;DHT22;8843;48.838;9.324;2023-04-24T00:21:00;14.90;80.80
17452;DHT22;8843;48.838;9.324;2023-04-24T00:23:27;14.80;81.10
17452;DHT22;8843;48.838;9.324;2023-04-24T00:25:54;14.90;80.80
17452;DHT22;8843;48.838;9.324;2023-04-24T00:28:20;14.80;80.40
17452;DHT22;8843;48.838;9.324;2023-04-24T00:30:47;14.80;80.50
17452;DHT22;8843;48.838;9.324;2023-04-24T00:33:14;14.80;81.00
17452;DHT22;8843;48.838;9.324;2023-04-24T00:35:42;14.80;80.30
17452;DHT22;8843;48.838;9.324;2023-04-24T00:38:09;14.80;80.70
17452;DHT22;8843;48.838;9.324;2023-04-24T00:40:36;14.80;80.40
17452;DHT22;8843;48.838;9.324;2023-04-24T00:43:03;14.80;81.30
17452;DHT22;8843;48.838;9.324;2023-04-24T00:45:30;14.80;81.20
17452;DHT22;8843;48.838;9.324;2023-04-24T00:47:58;14.80;81.80
17452;DHT22;8843;48.838;9.324;2023-04-24T00:50:25;14.80;80.70
17452;DHT22;8843;48.838;9.324;2023-04-24T00:52:53;14.80;81.50
17452;DHT22;8843;48.838;9.324;2023-04-24T00:55:20;14.80;80.50
17452;DHT22;8843;48.838;9.324;2023-04-24T00:57:47;14.80;81.20
17452;DHT22;8843;48.838;9.324;2023-04-24T01:00:15;14.80;81.40
17452;DHT22;8843;48.838;9.324;2023-04-24T01:02:44;14.80;81.10
17452;DHT22;8843;48.838;9.324;2023-04-24T01:05:11;14.80;81.40
17452;DHT22;8843;48.838;9.324;2023-04-24T01:07:39;14.80;81.30
17452;DHT22;8843;48.838;9.324;2023-04-24T01:10:11;14.80;80.00
17452;DHT22;8843;48.838;9.324;2023-04-24T01:12:39;14.80;81.10
17452;DHT22;8843;48.838;9.324;2023-04-24T01:15:07;14.80;81.00
17452;DHT22;8843;48.838;9.324;2023-04-24T01:17:34;14.80;81.20
17452;DHT22;8843;48.838;9.324;2023-04-24T01:20:02;14.80;80.70
17452;DHT22;8843;48.838;9.324;2023-04-24T01:22:33;14.80;81.00
17452;DHT22;8843;48.838;9.324;2023-04-24T01:25:00;14.80;81.30
17452;DHT22;8843;48.838;9.324;2023-04-24T01:27:27;14.70;80.10
17452;DHT22;8843;48.838;9.324;2023-04-24T01:29:54;14.70;80.80
17452;DHT22;8843;48.838;9.324;2023-04-24T01:32:21;14.70;81.10
17452;DHT22;8843;48.838;9.324;2023-04-24T01:34:48;14.70;80.20
17452;DHT22;8843;48.838;9.324;2023-04-24T01:37:15;14.70;80.80
17452;DHT22;8843;48.838;9.324;2023-04-24T01:39:43;14.70;81.00
17452;DHT22;8843;48.838;9.324;2023-04-24T01:42:12;14.70;80.70
17452;DHT22;8843;48.838;9.324;2023-04-24T01:44:40;14.70;80.60
17452;DHT22;8843;48.838;9.324;2023-04-24T01:47:08;14.70;80.50
17452;DHT22;8843;48.838;9.324;2023-04-24T01:49:35;14.70;81.10
17452;DHT22;8843;48.838;9.324;2023-04-24T01:52:03;14.70;81.30
17452;DHT22;8843;48.838;9.324;2023-04-24T01:54:30;14.70;80.50
17452;DHT22;8843;48.838;9.324;2023-04-24T01:56:59;14.60;80.60
17452;DHT22;8843;48.838;9.324;2023-04-24T01:59:28;14.60;80.80
17452;DHT22;8843;48.838;9.324;2023-04-24T02:01:55;14.60;80.10
17452;DHT22;8843;48.838;9.324;2023-04-24T02:04:22;14.60;80.90
17452;DHT22;8843;48.838;9.324;2023-04-24T02:06:49;14.60;80.80
17452;DHT22;8843;48.838;9.324;2023-04-24T02:09:16;14.70;81.10
17452;DHT22;8843;48.838;9.324;2023-04-24T02:11:43;14.60;80.30
17452;DHT22;8843;48.838;9.324;2023-04-24T02:14:11;14.60;80.70
17452;DHT22;8843;48.838;9.324;2023-04-24T02:16:38;14.60;80.60
17452;DHT22;8843;48.838;9.324;2023-04-24T02:19:04;14.60;80.00
17452;DHT22;8843;48.838;9.324;2023-04-24T02:21:31;14.60;80.30
17452;DHT22;8843;48.838;9.324;2023-04-24T02:23:58;14.60;80.70
17452;DHT22;8843;48.838;9.324;2023-04-24T02:26:25;14.60;81.30
17452;DHT22;8843;48.838;9.324;2023-04-24T02:28:52;14.60;80.60
17452;DHT22;8843;48.838;9.324;2023-04-24T02:31:20;14.60;81.40
17452;DHT22;8843;48.838;9.324;2023-04-24T02:33:47;14.60;81.40
17452;DHT22;8843;48.838;9.324;2023-04-24T02:36:14;14.50;80.80
17452;DHT22;8843;48.838;9.324;2023-04-24T02:38:41;14.50;80.00
17452;DHT22;8843;48.838;9.324;2023-04-24T02:41:08;14.50;80.00
17452;DHT22;8843;48.838;9.324;2023-04-24T02:43:35;14.60;81.20
17452;DHT22;8843;48.838;9.324;2023-04-24T02:46:02;14.60;81.40
17452;DHT22;8843;48.838;9.324;2023-04-24T02:48:30;14.60;81.20
17452;DHT22;8843;48.838;9.324;2023-04-24T02:50:57;14.60;81.00
17452;DHT22;8843;48.838;9.324;2023-04-24T02:53:24;14.60;80.90
17452;DHT22;8843;48.838;9.324;2023-04-24T02:55:50;14.50;80.30
17452;DHT22;8843;48.838;9.324;2023-04-24T02:58:17;14.50;81.40
17452;DHT22;8843;48.838;9.324;2023-04-24T03:00:45;14.50;80.80
17452;DHT22;8843;48.838;9.324;2023-04-24T03:03:12;14.50;81.10
17452;DHT22;8843;48.838;9.324;2023-04-24T03:05:40;14.50;81.50
17452;DHT22;8843;48.838;9.324;2023-04-24T03:08:07;14.50;81.40
17452;DHT22;8843;48.838;9.324;2023-04-24T03:10:34;14.50;81.30
17452;DHT22;8843;48.838;9.324;2023-04-24T03:13:01;14.50;81.40
17452;DHT22;8843;48.838;9.324;2023-04-24T03:15:28;14.50;81.80
17452;DHT22;8843;48.838;9.324;2023-04-24T03:17:54;14.50;81.60
17452;DHT22;8843;48.838;9.324;2023-04-24T03:20:21;14.50;81.60
17452;DHT22;8843;48.838;9.324;2023-04-24T03:22:50;14.50;81.80
17452;DHT22;8843;48.838;9.324;2023-04-24T03:25:16;14.50;82.70
17452;DHT22;8843;48.838;9.324;2023-04-24T03:27:43;14.50;82.00
17452;DHT22;8843;48.838;9.324;2023-04-24T03:30:11;14.50;82.00
17452;DHT22;8843;48.838;9.324;2023-04-24T03:32:38;14.50;82.00
17452;DHT22;8843;48.838;9.324;2023-04-24T03:35:06;14.50;82.10
17452;DHT22;8843;48.838;9.324;2023-04-24T03:37:33;14.50;81.80
17452;DHT22;8843;48.838;9.324;2023-04-24T03:40:02;14.50;83.00
17452;DHT22;8843;48.838;9.324;2023-04-24T03:42:29;14.50;82.00
17452;DHT22;8843;48.838;9.324;2023-04-24T03:44:56;14.50;83.10
17452;DHT22;8843;48.838;9.324;2023-04-24T03:47:23;14.50;81.90
17452;DHT22;8843;48.838;9.324;2023-04-24T03:49:50;14.40;81.30
17452;DHT22;8843;48.838;9.324;2023-04-24T03:52:17;14.40;82.10
17452;DHT22;8843;48.838;9.324;2023-04-24T03:54:44;14.40;82.10
17452;DHT22;8843;48.838;9.324;2023-04-24T03:57:12;14.40;82.40
17452;DHT22;8843;48.838;9.324;2023-04-24T03:59:39;14.40;82.40
17452;DHT22;8843;48.838;9.324;2023-04-24T04:02:06;14.40;82.20
17452;DHT22;8843;48.838;9.324;2023-04-24T04:04:33;14.40;82.40
17452;DHT22;8843;48.838;9.324;2023-04-24T04:07:00;14.40;82.30
17452;DHT22;8843;48.838;9.324;2023-04-24T04:09:28;14.40;82.40
17452;DHT22;8843;48.838;9.324;2023-04-24T04:11:55;14.40;82.20
17452;DHT22;8843;48.838;9.324;2023-04-24T04:14:23;14.40;81.80
17452;DHT22;8843;48.838;9.324;2023-04-24T04:16:50;14.40;81.60
17452;DHT22;8843;48.838;9.324;2023-04-24T04:19:17;14.40;82.50
17452;DHT22;8843;48.838;9.324;2023-04-24T04:21:44;14.40;82.30
17452;DHT22;8843;48.838;9.324;2023-04-24T04:24:16;14.40;81.90
17452;DHT22;8843;48.838;9.324;2023-04-24T04:26:43;14.30;81.70
17452;DHT22;8843;48.838;9.324;2023-04-24T04:29:11;14.30;83.10
17452;DHT22;8843;48.838;9.324;2023-04-24T04:31:40;14.30;81.80
17452;DHT22;8843;48.838;9.324;2023-04-24T04:34:06;14.30;82.60
17452;DHT22;8843;48.838;9.324;2023-04-24T04:36:34;14.30;82.00
17452;DHT22;8843;48.838;9.324;2023-04-24T04:39:02;14.30;82.40
17452;DHT22;8843;48.838;9.324;2023-04-24T04:41:29;14.30;82.50
17452;DHT22;8843;48.838;9.324;2023-04-24T04:43:57;14.30;82.40
17452;DHT22;8843;48.838;9.324;2023-04-24T04:46:24;14.20;82.70
17452;DHT22;8843;48.838;9.324;2023-04-24T04:48:53;14.20;82.90
17452;DHT22;8843;48.838;9.324;2023-04-24T04:51:22;14.30;82.60
17452;DHT22;8843;48.838;9.324;2023-04-24T04:53:49;14.30;82.70
17452;DHT22;8843;48.838;9.324;2023-04-24T04:56:15;14.30;82.80
17452;DHT22;8843;48.838;9.324;2023-04-24T04:58:42;14.30;82.50
17452;DHT22;8843;48.838;9.324;2023-04-24T05:01:09;14.30;82.60
17452;DHT22;8843;48.838;9.324;2023-04-24T05:03:36;14.30;82.70
17452;DHT22;8843;48.838;9.324;2023-04-24T05:06:05;14.30;82.40
17452;DHT22;8843;48.838;9.324;2023-04-24T05:08:32;14.30;82.60
17452;DHT22;8843;48.838;9.324;2023-04-24T05:10:59;14.20;82.30
17452;DHT22;8843;48.838;9.324;2023-04-24T05:13:26;14.30;82.80
17452;DHT22;8843;48.838;9.324;2023-04-24T05:15:53;14.30;82.90
17452;DHT22;8843;48.838;9.324;2023-04-24T05:18:20;14.30;83.00
17452;DHT22;8843;48.838;9.324;2023-04-24T05:20:46;14.20;83.10
17452;DHT22;8843;48.838;9.324;2023-04-24T05:23:15;14.50;84.80
17452;DHT22;8843;48.838;9.324;2023-04-24T05:25:41;14.60;83.30
17452;DHT22;8843;48.838;9.324;2023-04-24T05:28:08;14.50;81.90
17452;DHT22;8843;48.838;9.324;2023-04-24T05:30:35;14.40;82.00
17452;DHT22;8843;48.838;9.324;2023-04-24T05:33:02;14.30;82.90
17452;DHT22;8843;48.838;9.324;2023-04-24T05:35:29;14.30;82.10
17452;DHT22;8843;48.838;9.324;2023-04-24T05:37:56;14.30;83.00
17452;DHT22;8843;48.838;9.324;2023-04-24T05:40:24;14.20;82.10
17452;DHT22;8843;48.838;9.324;2023-04-24T05:42:51;14.20;82.20
17452;DHT22;8843;48.838;9.324;2023-04-24T05:45:18;14.20;82.30
17452;DHT22;8843;48.838;9.324;2023-04-24T05:47:44;14.20;83.00
17452;DHT22;8843;48.838;9.324;2023-04-24T05:50:12;14.10;82.50
17452;DHT22;8843;48.838;9.324;2023-04-24T05:52:39;14.60;81.10
17452;DHT22;8843;48.838;9.324;2023-04-24T05:55:06;14.70;80.80
17452;DHT22;8843;48.838;9.324;2023-04-24T05:57:34;14.80;79.60
17452;DHT22;8843;48.838;9.324;2023-04-24T06:00:01;14.90;79.10
17452;DHT22;8843;48.838;9.324;2023-04-24T06:02:29;14.40;78.20
17452;DHT22;8843;48.838;9.324;2023-04-24T06:04:58;13.80;80.10
17452;DHT22;8843;48.838;9.324;2023-04-24T06:07:25;13.50;80.90
17452;DHT22;8843;48.838;9.324;2023-04-24T06:09:52;13.50;81.10
17452;DHT22;8843;48.838;9.324;2023-04-24T06:12:20;13.30;81.20
17452;DHT22;8843;48.838;9.324;2023-04-24T06:14:48;13.30;80.80
17452;DHT22;8843;48.838;9.324;2023-04-24T06:17:15;13.60;80.60
17452;DHT22;8843;48.838;9.324;2023-04-24T06:19:42;14.00;81.50
17452;DHT22;8843;48.838;9.324;2023-04-24T06:22:09;14.10;78.10
17452;DHT22;8843;48.838;9.324;2023-04-24T06:24:36;13.60;79.50
17452;DHT22;8843;48.838;9.324;2023-04-24T06:27:03;13.70;78.60
17452;DHT22;8843;48.838;9.324;2023-04-24T06:29:30;13.70;81.50
17452;DHT22;8843;48.838;9.324;2023-04-24T06:31:58;13.90;81.00
17452;DHT22;8843;48.838;9.324;2023-04-24T06:34:25;14.00;80.90
17452;DHT22;8843;48.838;9.324;2023-04-24T06:36:52;14.10;80.60
17452;DHT22;8843;48.838;9.324;2023-04-24T06:39:19;14.10;80.30
17452;DHT22;8843;48.838;9.324;2023-04-24T06:41:45;14.10;80.60
17452;DHT22;8843;48.838;9.324;2023-04-24T06:44:12;14.10;80.50
17452;DHT22;8843;48.838;9.324;2023-04-24T06:46:40;14.20;80.70
17452;DHT22;8843;48.838;9.324;2023-04-24T06:49:08;14.10;80.60
17452;DHT22;8843;48.838;9.324;2023-04-24T06:51:35;14.10;81.10
17452;DHT22;8843;48.838;9.324;2023-04-24T06:54:02;14.10;80.00
17452;DHT22;8843;48.838;9.324;2023-04-24T06:56:29;14.10;80.60
17452;DHT22;8843;48.838;9.324;2023-04-24T06:58:55;14.10;80.70
17452;DHT22;8843;48.838;9.324;2023-04-24T07:01:22;14.10;80.90
17452;DHT22;8843;48.838;9.324;2023-04-24T07:03:49;14.10;80.70
17452;DHT22;8843;48.838;9.324;2023-04-24T07:06:17;14.10;80.90
17452;DHT22;8843;48.838;9.324;2023-04-24T07:08:47;14.10;81.70
17452;DHT22;8843;48.838;9.324;2023-04-24T07:11:14;14.10;80.70
17452;DHT22;8843;48.838;9.324;2023-04-24T07:13:41;14.10;81.10
17452;DHT22;8843;48.838;9.324;2023-04-24T07:16:08;14.10;80.60
17452;DHT22;8843;48.838;9.324;2023-04-24T07:18:35;14.10;80.70
17452;DHT22;8843;48.838;9.324;2023-04-24T07:21:02;14.00;80.50
17452;DHT22;8843;48.838;9.324;2023-04-24T07:23:30;14.10;80.90
17452;DHT22;8843;48.838;9.324;2023-04-24T07:25:57;14.10;81.10
17452;DHT22;8843;48.838;9.324;2023-04-24T07:28:24;14.10;81.10
17452;DHT22;8843;48.838;9.324;2023-04-24T07:30:51;14.10;81.10
17452;DHT22;8843;48.838;9.324;2023-04-24T07:33:19;14.10;80.30
17452;DHT22;8843;48.838;9.324;2023-04-24T07:35:46;14.00;80.70
17452;DHT22;8843;48.838;9.324;2023-04-24T07:38:13;14.00;80.40
17452;DHT22;8843;48.838;9.324;2023-04-24T07:40:41;14.00;80.30
17452;DHT22;8843;48.838;9.324;2023-04-24T07:43:08;14.00;81.40
17452;DHT22;8843;48.838;9.324;2023-04-24T07:45:35;14.00;80.00
17452;DHT22;8843;48.838;9.324;2023-04-24T07:48:03;13.90;78.80
17452;DHT22;8843;48.838;9.324;2023-04-24T07:50:30;13.90;79.20
17452;DHT22;8843;48.838;9.324;2023-04-24T07:52:57;13.90;79.50
17452;DHT22;8843;48.838;9.324;2023-04-24T07:55:24;13.90;79.50
17452;DHT22;8843;48.838;9.324;2023-04-24T07:57:52;13.90;79.70
17452;DHT22;8843;48.838;9.324;2023-04-24T08:00:20;13.90;79.30
17452;DHT22;8843;48.838;9.324;2023-04-24T08:02:47;13.90;79.20
17452;DHT22;8843;48.838;9.324;2023-04-24T08:05:14;13.90;78.40
17452;DHT22;8843;48.838;9.324;2023-04-24T08:07:40;13.90;78.80
17452;DHT22;8843;48.838;9.324;2023-04-24T08:10:10;13.80;76.60
17452;DHT22;8843;48.838;9.324;2023-04-24T08:12:37;13.80;77.00
17452;DHT22;8843;48.838;9.324;2023-04-24T08:15:06;13.80;76.80
17452;DHT22;8843;48.838;9.324;2023-04-24T08:17:34;13.80;77.10
17452;DHT22;8843;48.838;9.324;2023-04-24T08:20:01;13.80;77.20
17452;DHT22;8843;48.838;9.324;2023-04-24T08:22:28;13.80;76.50
17452;DHT22;8843;48.838;9.324;2023-04-24T08:24:55;13.80;75.60
17452;DHT22;8843;48.838;9.324;2023-04-24T08:27:22;13.90;76.70
17452;DHT22;8843;48.838;9.324;2023-04-24T08:29:49;13.90;76.30
17452;DHT22;8843;48.838;9.324;2023-04-24T08:32:18;13.80;74.30
17452;DHT22;8843;48.838;9.324;2023-04-24T08:34:45;13.80;75.20
17452;DHT22;8843;48.838;9.324;2023-04-24T08:37:12;13.80;76.30
17452;DHT22;8843;48.838;9.324;2023-04-24T08:39:38;13.90;75.90
17452;DHT22;8843;48.838;9.324;2023-04-24T08:42:05;13.80;75.80
17452;DHT22;8843;48.838;9.324;2023-04-24T08:44:34;13.90;75.90
17452;DHT22;8843;48.838;9.324;2023-04-24T08:47:02;13.90;75.20
17452;DHT22;8843;48.838;9.324;2023-04-24T08:49:31;13.80;75.50
17452;DHT22;8843;48.838;9.324;2023-04-24T08:51:59;13.80;74.60
17452;DHT22;8843;48.838;9.324;2023-04-24T08:54:26;13.90;76.40
17452;DHT22;8843;48.838;9.324;2023-04-24T08:56:54;13.90;75.20
17452;DHT22;8843;48.838;9.324;2023-04-24T08:59:28;13.90;75.80
17452;DHT22;8843;48.838;9.324;2023-04-24T09:01:55;13.90;74.40
17452;DHT22;8843;48.838;9.324;2023-04-24T09:04:23;13.90;74.70
17452;DHT22;8843;48.838;9.324;2023-04-24T09:06:55;13.80;74.60
17452;DHT22;8843;48.838;9.324;2023-04-24T09:09:23;13.80;74.50
17452;DHT22;8843;48.838;9.324;2023-04-24T09:11:51;13.90;76.30
17452;DHT22;8843;48.838;9.324;2023-04-24T09:14:21;13.90;74.60
17452;DHT22;8843;48.838;9.324;2023-04-24T09:16:49;13.90;74.90
17452;DHT22;8843;48.838;9.324;2023-04-24T09:19:16;13.90;73.70
17452;DHT22;8843;48.838;9.324;2023-04-24T09:21:46;13.80;74.50
17452;DHT22;8843;48.838;9.324;2023-04-24T09:24:17;13.90;76.50
17452;DHT22;8843;48.838;9.324;2023-04-24T09:26:46;13.90;76.80
17452;DHT22;8843;48.838;9.324;2023-04-24T09:29:14;13.90;76.10
17452;DHT22;8843;48.838;9.324;2023-04-24T09:31:42;13.90;77.10
17452;DHT22;8843;48.838;9.324;2023-04-24T09:34:09;13.80;74.00
17452;DHT22;8843;48.838;9.324;2023-04-24T09:36:37;13.80;75.00
17452;DHT22;8843;48.838;9.324;2023-04-24T09:39:06;13.70;76.00
17452;DHT22;8843;48.838;9.324;2023-04-24T09:41:43;13.80;76.50
17452;DHT22;8843;48.838;9.324;2023-04-24T09:44:13;13.70;74.50
17452;DHT22;8843;48.838;9.324;2023-04-24T09:46:41;13.70;76.70
17452;DHT22;8843;48.838;9.324;2023-04-24T09:49:09;13.70;76.50
17452;DHT22;8843;48.838;9.324;2023-04-24T09:51:37;13.70;76.40
17452;DHT22;8843;48.838;9.324;2023-04-24T09:54:11;13.80;75.50
17452;DHT22;8843;48.838;9.324;2023-04-24T09:56:42;13.80;75.30
17452;DHT22;8843;48.838;9.324;2023-04-24T09:59:10;13.80;74.90
17452;DHT22;8843;48.838;9.324;2023-04-24T10:01:37;13.80;75.60
17452;DHT22;8843;48.838;9.324;2023-04-24T10:04:15;13.90;75.20
17452;DHT22;8843;48.838;9.324;2023-04-24T10:06:43;13.90;73.10
17452;DHT22;8843;48.838;9.324;2023-04-24T10:09:10;13.90;73.80
17452;DHT22;8843;48.838;9.324;2023-04-24T10:11:42;13.90;75.60
17452;DHT22;8843;48.838;9.324;2023-04-24T10:14:12;13.90;74.00
17452;DHT22;8843;48.838;9.324;2023-04-24T10:16:40;14.00;75.30
17452;DHT22;8843;48.838;9.324;2023-04-24T10:19:07;14.10;74.60
17452;DHT22;8843;48.838;9.324;2023-04-24T10:21:34;14.10;74.00
17452;DHT22;8843;48.838;9.324;2023-04-24T10:24:03;14.10;73.50
17452;DHT22;8843;48.838;9.324;2023-04-24T10:26:33;14.20;74.30
17452;DHT22;8843;48.838;9.324;2023-04-24T10:29:02;14.30;74.40
17452;DHT22;8843;48.838;9.324;2023-04-24T10:31:31;14.40;74.20
17452;DHT22;8843;48.838;9.324;2023-04-24T10:34:00;14.40;74.30
17452;DHT22;8843;48.838;9.324;2023-04-24T10:36:29;14.40;72.80
17452;DHT22;8843;48.838;9.324;2023-04-24T10:39:00;14.40;72.30
17452;DHT22;8843;48.838;9.324;2023-04-24T10:41:27;14.40;72.90
17452;DHT22;8843;48.838;9.324;2023-04-24T10:44:08;14.40;72.30
17452;DHT22;8843;48.838;9.324;2023-04-24T10:46:35;14.30;72.30
17452;DHT22;8843;48.838;9.324;2023-04-24T10:49:04;14.20;72.50
17452;DHT22;8843;48.838;9.324;2023-04-24T10:51:47;14.20;71.30
17452;DHT22;8843;48.838;9.324;2023-04-24T10:54:25;14.20;68.60
17452;DHT22;8843;48.838;9.324;2023-04-24T10:56:52;14.10;69.40
17452;DHT22;8843;48.838;9.324;2023-04-24T10:59:27;14.10;68.90
17452;DHT22;8843;48.838;9.324;2023-04-24T11:01:55;14.10;69.80
17452;DHT22;8843;48.838;9.324;2023-04-24T11:04:32;14.00;70.40
17452;DHT22;8843;48.838;9.324;2023-04-24T11:07:00;14.00;69.90
17452;DHT22;8843;48.838;9.324;2023-04-24T11:09:30;14.00;71.30
17452;DHT22;8843;48.838;9.324;2023-04-24T11:12:05;14.00;68.10
17452;DHT22;8843;48.838;9.324;2023-04-24T11:15:01;14.00;70.50
17452;DHT22;8843;48.838;9.324;2023-04-24T11:17:32;14.00;70.80
17452;DHT22;8843;48.838;9.324;2023-04-24T11:20:03;14.00;70.10
17452;DHT22;8843;48.838;9.324;2023-04-24T11:22:33;14.00;69.00
17452;DHT22;8843;48.838;9.324;2023-04-24T11:25:01;14.00;68.40
17452;DHT22;8843;48.838;9.324;2023-04-24T11:27:30;14.00;69.90
17452;DHT22;8843;48.838;9.324;2023-04-24T11:30:03;14.00;68.00
17452;DHT22;8843;48.838;9.324;2023-04-24T11:32:35;14.00;68.60
17452;DHT22;8843;48.838;9.324;2023-04-24T11:35:06;14.00;68.70
17452;DHT22;8843;48.838;9.324;2023-04-24T11:37:36;14.00;70.40
17452;DHT22;8843;48.838;9.324;2023-04-24T11:40:04;14.00;69.50
17452;DHT22;8843;48.838;9.324;2023-04-24T11:42:34;14.00;67.70
17452;DHT22;8843;48.838;9.324;2023-04-24T11:45:07;14.00;70.20
17452;DHT22;8843;48.838;9.324;2023-04-24T11:47:34;14.00;69.80
17452;DHT22;8843;48.838;9.324;2023-04-24T11:50:02;14.00;68.90
17452;DHT22;8843;48.838;9.324;2023-04-24T11:52:30;14.00;68.20
17452;DHT22;8843;48.838;9.324;2023-04-24T11:54:58;14.00;69.80
17452;DHT22;8843;48.838;9.324;2023-04-24T11:57:26;14.00;69.70
17452;DHT22;8843;48.838;9.324;2023-04-24T11:59:54;14.00;69.20
17452;DHT22;8843;48.838;9.324;2023-04-24T12:02:27;14.00;69.50
17452;DHT22;8843;48.838;9.324;2023-04-24T12:04:54;14.00;69.40
17452;DHT22;8843;48.838;9.324;2023-04-24T12:07:22;14.00;69.50
17452;DHT22;8843;48.838;9.324;2023-04-24T12:09:54;14.00;70.50
17452;DHT22;8843;48.838;9.324;2023-04-24T12:12:25;13.90;72.30
17452;DHT22;8843;48.838;9.324;2023-04-24T12:14:54;13.90;71.50
17452;DHT22;8843;48.838;9.324;2023-04-24T12:17:27;13.90;71.40
17452;DHT22;8843;48.838;9.324;2023-04-24T12:19:58;13.90;70.80
17452;DHT22;8843;48.838;9.324;2023-04-24T12:22:25;14.00;70.40
17452;DHT22;8843;48.838;9.324;2023-04-24T12:24:57;13.90;71.70
17452;DHT22;8843;48.838;9.324;2023-04-24T12:27:24;13.90;70.10
17452;DHT22;8843;48.838;9.324;2023-04-24T12:29:55;13.90;71.20
17452;DHT22;8843;48.838;9.324;2023-04-24T12:32:22;13.90;72.60
17452;DHT22;8843;48.838;9.324;2023-04-24T12:34:52;13.90;70.20
17452;DHT22;8843;48.838;9.324;2023-04-24T12:37:19;13.90;69.40
17452;DHT22;8843;48.838;9.324;2023-04-24T12:40:02;13.90;69.60
17452;DHT22;8843;48.838;9.324;2023-04-24T12:42:29;13.90;71.40
17452;DHT22;8843;48.838;9.324;2023-04-24T12:44:57;13.80;68.20
17452;DHT22;8843;48.838;9.324;2023-04-24T12:47:25;13.70;71.40
17452;DHT22;8843;48.838;9.324;2023-04-24T12:49:54;13.80;68.90
17452;DHT22;8843;48.838;9.324;2023-04-24T12:52:21;13.80;67.00
17452;DHT22;8843;48.838;9.324;2023-04-24T12:54:49;13.70;66.80
17452;DHT22;8843;48.838;9.324;2023-04-24T12:57:16;13.80;67.80
17452;DHT22;8843;48.838;9.324;2023-04-24T12:59:43;13.70;64.40
17452;DHT22;8843;48.838;9.324;2023-04-24T13:02:10;13.70;66.10
17452;DHT22;8843;48.838;9.324;2023-04-24T13:04:37;13.70;64.30
17452;DHT22;8843;48.838;9.324;2023-04-24T13:07:06;13.70;67.80
17452;DHT22;8843;48.838;9.324;2023-04-24T13:09:34;13.70;65.40
17452;DHT22;8843;48.838;9.324;2023-04-24T13:12:02;13.70;64.20
17452;DHT22;8843;48.838;9.324;2023-04-24T13:14:30;13.60;64.60
17452;DHT22;8843;48.838;9.324;2023-04-24T13:16:57;13.60;66.90
17452;DHT22;8843;48.838;9.324;2023-04-24T13:19:26;13.60;70.30
17452;DHT22;8843;48.838;9.324;2023-04-24T13:21:53;13.60;70.30
17452;DHT22;8843;48.838;9.324;2023-04-24T13:24:22;13.60;71.80
17452;DHT22;8843;48.838;9.324;2023-04-24T13:26:50;13.50;70.90
17452;DHT22;8843;48.838;9.324;2023-04-24T13:29:17;13.60;71.40
17452;DHT22;8843;48.838;9.324;2023-04-24T13:31:45;13.90;73.00
17452;DHT22;8843;48.838;9.324;2023-04-24T13:34:12;14.10;71.20
17452;DHT22;8843;48.838;9.324;2023-04-24T13:36:39;14.20;70.20
17452;DHT22;8843;48.838;9.324;2023-04-24T13:39:06;14.20;68.80
17452;DHT22;8843;48.838;9.324;2023-04-24T13:41:34;14.20;67.60
17452;DHT22;8843;48.838;9.324;2023-04-24T13:44:01;14.20;67.90
17452;DHT22;8843;48.838;9.324;2023-04-24T13:46:28;14.10;68.20
17452;DHT22;8843;48.838;9.324;2023-04-24T13:48:56;14.10;68.20
17452;DHT22;8843;48.838;9.324;2023-04-24T13:51:23;14.10;69.90
17452;DHT22;8843;48.838;9.324;2023-04-24T13:53:52;14.00;68.60
17452;DHT22;8843;48.838;9.324;2023-04-24T13:56:19;13.90;68.00
17452;DHT22;8843;48.838;9.324;2023-04-24T13:58:48;14.00;69.60
17452;DHT22;8843;48.838;9.324;2023-04-24T14:01:15;13.90;69.20
17452;DHT22;8843;48.838;9.324;2023-04-24T14:03:42;13.90;69.00
17452;DHT22;8843;48.838;9.324;2023-04-24T14:06:09;13.90;68.70
17452;DHT22;8843;48.838;9.324;2023-04-24T14:08:36;13.80;68.60
17452;DHT22;8843;48.838;9.324;2023-04-24T14:11:04;13.80;70.10
17452;DHT22;8843;48.838;9.324;2023-04-24T14:13:31;13.80;69.80
17452;DHT22;8843;48.838;9.324;2023-04-24T14:15:59;13.80;70.50
17452;DHT22;8843;48.838;9.324;2023-04-24T14:18:26;13.90;71.50
17452;DHT22;8843;48.838;9.324;2023-04-24T14:20:53;13.90;71.80
17452;DHT22;8843;48.838;9.324;2023-04-24T14:23:20;14.00;71.60
17452;DHT22;8843;48.838;9.324;2023-04-24T14:25:47;14.00;72.30
17452;DHT22;8843;48.838;9.324;2023-04-24T14:28:17;14.00;72.70
17452;DHT22;8843;48.838;9.324;2023-04-24T14:30:46;14.00;69.90
17452;DHT22;8843;48.838;9.324;2023-04-24T14:33:16;14.20;71.30
17452;DHT22;8843;48.838;9.324;2023-04-24T14:35:44;14.60;74.30
17452;DHT22;8843;48.838;9.324;2023-04-24T14:38:11;14.60;71.70
17452;DHT22;8843;48.838;9.324;2023-04-24T14:40:38;14.50;71.50
17452;DHT22;8843;48.838;9.324;2023-04-24T14:43:05;14.40;70.90
17452;DHT22;8843;48.838;9.324;2023-04-24T14:45:35;14.30;70.90
17452;DHT22;8843;48.838;9.324;2023-04-24T14:48:06;14.30;70.00
17452;DHT22;8843;48.838;9.324;2023-04-24T14:50:35;14.30;70.70
17452;DHT22;8843;48.838;9.324;2023-04-24T14:53:02;14.40;71.00
17452;DHT22;8843;48.838;9.324;2023-04-24T14:55:29;14.40;70.00
17452;DHT22;8843;48.838;9.324;2023-04-24T14:57:56;14.30;69.90
17452;DHT22;8843;48.838;9.324;2023-04-24T15:00:23;14.30;69.30
17452;DHT22;8843;48.838;9.324;2023-04-24T15:02:50;14.30;69.70
17452;DHT22;8843;48.838;9.324;2023-04-24T15:05:17;14.20;69.70
17452;DHT22;8843;48.838;9.324;2023-04-24T15:07:45;14.20;70.00
17452;DHT22;8843;48.838;9.324;2023-04-24T15:10:12;14.20;70.30
17452;DHT22;8843;48.838;9.324;2023-04-24T15:12:39;14.30;68.00
17452;DHT22;8843;48.838;9.324;2023-04-24T15:15:07;14.30;69.70
17452;DHT22;8843;48.838;9.324;2023-04-24T15:17:34;14.30;70.40
17452;DHT22;8843;48.838;9.324;2023-04-24T15:20:02;14.30;69.40
17452;DHT22;8843;48.838;9.324;2023-04-24T15:22:29;14.30;69.30
17452;DHT22;8843;48.838;9.324;2023-04-24T15:24:57;14.30;68.30
17452;DHT22;8843;48.838;9.324;2023-04-24T15:27:24;14.30;69.30
17452;DHT22;8843;48.838;9.324;2023-04-24T15:29:51;14.20;69.60
17452;DHT22;8843;48.838;9.324;2023-04-24T15:32:19;14.20;66.90
17452;DHT22;8843;48.838;9.324;2023-04-24T15:34:45;14.10;68.50
17452;DHT22;8843;48.838;9.324;2023-04-24T15:37:12;14.10;67.80
17452;DHT22;8843;48.838;9.324;2023-04-24T15:39:39;14.10;67.10
17452;DHT22;8843;48.838;9.324;2023-04-24T15:42:07;14.00;66.50
17452;DHT22;8843;48.838;9.324;2023-04-24T15:44:34;14.00;68.10
17452;DHT22;8843;48.838;9.324;2023-04-24T15:47:01;14.00;66.90
17452;DHT22;8843;48.838;9.324;2023-04-24T15:49:28;14.00;68.10